createdAt,value
2023-02-15T00:00:38.336Z,58.42
2023-02-15T00:03:04.683Z,75.10
2023-02-15T00:05:31.909Z,60.65
2023-02-15T00:07:58.291Z,63.88
2023-02-15T00:10:24.580Z,62.35
2023-02-15T00:12:50.905Z,48.10
2023-02-15T00:15:17.401Z,51.58
2023-02-15T00:17:43.736Z,48.42
2023-02-15T00:20:10.391Z,53.38
2023-02-15T00:22:36.725Z,52.40
2023-02-15T00:25:03.090Z,53.17
2023-02-15T00:27:29.711Z,56.88
2023-02-15T00:29:56.123Z,48.90
2023-02-15T00:32:22.446Z,54.10
2023-02-15T00:34:48.807Z,50.78
2023-02-15T00:37:15.191Z,67.30
2023-02-15T00:39:41.489Z,59.15
2023-02-15T00:42:07.806Z,68.85
2023-02-15T00:44:34.103Z,55.92
2023-02-15T00:47:00.524Z,58.90
2023-02-15T00:49:26.876Z,57.08
2023-02-15T00:51:53.954Z,110.43
2023-02-15T00:54:20.371Z,74.85
2023-02-15T00:56:46.727Z,53.40
2023-02-15T00:59:13.076Z,57.92
2023-02-15T01:01:39.458Z,53.20
2023-02-15T01:04:05.822Z,54.80
2023-02-15T01:06:32.375Z,56.65
2023-02-15T01:08:58.717Z,46.90
2023-02-15T01:11:25.199Z,49.50
2023-02-15T01:13:54.869Z,48.25
2023-02-15T01:16:22.952Z,48.88
2023-02-15T01:18:49.469Z,47.15
2023-02-15T01:21:21.612Z,52.28
2023-02-15T01:23:48.247Z,47.85
2023-02-15T01:26:15.456Z,48.05
2023-02-15T01:28:43.818Z,47.80
2023-02-15T01:31:13.672Z,53.22
2023-02-15T01:33:40.108Z,51.17
2023-02-15T01:36:06.788Z,59.58
2023-02-15T01:38:34.072Z,53.33
2023-02-15T01:41:19.161Z,50.70
2023-02-15T01:43:48.868Z,43.67
2023-02-15T01:46:18.307Z,48.08
2023-02-15T01:48:48.990Z,48.15
2023-02-15T01:51:19.803Z,40.08
2023-02-15T01:53:54.855Z,43.67
2023-02-15T01:56:25.945Z,42.53
2023-02-15T01:58:56.235Z,46.35
2023-02-15T02:01:23.352Z,45.95
2023-02-15T02:04:03.088Z,42.50
2023-02-15T02:06:33.748Z,34.10
2023-02-15T02:09:01.614Z,47.95
2023-02-15T02:11:27.957Z,42.08
2023-02-15T02:13:55.835Z,49.55
2023-02-15T02:16:37.361Z,50.85
2023-02-15T02:19:43.943Z,49.20
2023-02-15T02:22:48.063Z,44.45
2023-02-15T02:25:27.473Z,41.88
2023-02-15T02:28:28.152Z,42.80
2023-02-15T02:31:22.566Z,35.72
2023-02-15T02:34:17.271Z,43.42
2023-02-15T02:37:15.824Z,44.25
2023-02-15T02:40:05.074Z,40.97
2023-02-15T02:42:58.290Z,42.15
2023-02-15T02:45:33.159Z,46.95
2023-02-15T02:48:18.795Z,42.08
2023-02-15T02:50:45.151Z,44.80
2023-02-15T02:53:12.252Z,42.33
2023-02-15T02:56:02.983Z,45.20
2023-02-15T02:58:37.675Z,42.03
2023-02-15T03:01:16.716Z,47.70
2023-02-15T03:03:49.060Z,46.03
2023-02-15T03:06:24.818Z,45.53
2023-02-15T03:08:59.512Z,38.80
2023-02-15T03:11:26.114Z,41.42
2023-02-15T03:13:52.751Z,42.08
2023-02-15T03:16:27.537Z,40.80
2023-02-15T03:18:59.988Z,40.65
2023-02-15T03:21:58.361Z,41.05
2023-02-15T03:24:30.100Z,42.97
2023-02-15T03:26:57.483Z,36.97
2023-02-15T03:29:28.514Z,36.75
2023-02-15T03:32:00.122Z,37.08
2023-02-15T03:34:27.126Z,40.97
2023-02-15T03:37:14.370Z,36.55
2023-02-15T03:39:48.820Z,39.88
2023-02-15T03:42:24.939Z,35.17
2023-02-15T03:45:06.497Z,35.47
2023-02-15T03:47:37.517Z,36.85
2023-02-15T03:50:30.323Z,33.88
2023-02-15T03:52:59.438Z,36.13
2023-02-15T03:55:25.927Z,38.00
2023-02-15T03:58:11.577Z,37.92
2023-02-15T04:01:03.963Z,39.08
2023-02-15T04:03:30.340Z,35.67
2023-02-15T04:05:56.656Z,42.38
2023-02-15T04:08:42.996Z,39.63
2023-02-15T04:11:09.352Z,40.15
2023-02-15T04:13:36.428Z,38.15
2023-02-15T04:16:06.811Z,38.38
2023-02-15T04:18:55.920Z,34.50
2023-02-15T04:21:42.768Z,33.33
2023-02-15T04:24:28.505Z,38.65
2023-02-15T04:26:54.988Z,39.47
2023-02-15T04:29:23.316Z,33.63
2023-02-15T04:31:50.706Z,38.15
2023-02-15T04:34:17.222Z,34.55
2023-02-15T04:36:44.251Z,35.88
2023-02-15T04:39:13.710Z,37.90
2023-02-15T04:41:40.565Z,35.58
2023-02-15T04:44:06.981Z,39.50
2023-02-15T04:46:33.412Z,42.42
2023-02-15T04:48:59.736Z,41.20
2023-02-15T04:51:26.049Z,42.67
2023-02-15T04:53:55.290Z,40.40
2023-02-15T04:56:21.948Z,39.80
2023-02-15T04:58:48.490Z,40.28
2023-02-15T05:01:15.629Z,43.03
2023-02-15T05:03:41.993Z,45.10
2023-02-15T05:06:08.462Z,49.10
2023-02-15T05:08:34.795Z,41.20
2023-02-15T05:11:01.156Z,46.25
2023-02-15T05:13:27.514Z,42.88
2023-02-15T05:15:54.950Z,41.17
2023-02-15T05:18:22.332Z,43.17
2023-02-15T05:20:49.257Z,46.17
2023-02-15T05:23:18.921Z,42.92
2023-02-15T05:26:08.679Z,39.97
2023-02-15T05:28:36.389Z,47.30
2023-02-15T05:31:06.766Z,44.45
2023-02-15T05:33:33.868Z,41.78
2023-02-15T05:36:02.154Z,45.85
2023-02-15T05:38:29.671Z,46.80
2023-02-15T05:40:56.085Z,48.85
2023-02-15T05:43:23.209Z,42.13
2023-02-15T05:45:55.283Z,43.15
2023-02-15T05:48:23.900Z,41.85
2023-02-15T05:51:02.064Z,46.58
2023-02-15T05:53:30.695Z,42.00
2023-02-15T05:56:00.383Z,46.60
2023-02-15T05:58:27.918Z,45.22
2023-02-15T06:00:55.017Z,42.38
2023-02-15T06:03:21.395Z,49.88
2023-02-15T06:05:47.720Z,46.70
2023-02-15T06:08:14.094Z,47.97
2023-02-15T06:10:40.982Z,38.35
2023-02-15T06:13:07.746Z,44.80
2023-02-15T06:15:34.130Z,39.63
2023-02-15T06:18:00.569Z,44.80
2023-02-15T06:20:27.294Z,45.90
2023-02-15T06:22:53.575Z,48.05
2023-02-15T06:25:20.024Z,43.13
2023-02-15T06:27:46.359Z,49.75
2023-02-15T06:30:13.402Z,44.13
2023-02-15T06:32:41.375Z,44.88
2023-02-15T06:35:07.978Z,43.63
2023-02-15T06:37:34.436Z,42.47
2023-02-15T06:40:03.484Z,51.78
2023-02-15T06:42:30.686Z,40.63
2023-02-15T06:44:57.007Z,51.40
2023-02-15T06:47:23.390Z,46.65
2023-02-15T06:49:49.685Z,46.13
2023-02-15T06:52:16.341Z,53.55
2023-02-15T06:54:42.645Z,47.75
2023-02-15T06:57:10.342Z,49.97
2023-02-15T06:59:36.650Z,43.03
2023-02-15T07:02:03.038Z,47.22
2023-02-15T07:04:30.440Z,46.28
2023-02-15T07:06:56.752Z,45.67
2023-02-15T07:09:23.505Z,44.10
2023-02-15T07:12:08.443Z,46.65
2023-02-15T07:14:34.819Z,48.75
2023-02-15T07:17:01.152Z,46.53
2023-02-15T07:19:27.472Z,50.15
2023-02-15T07:21:53.845Z,42.53
2023-02-15T07:24:20.153Z,49.58
2023-02-15T07:26:46.569Z,51.72
2023-02-15T07:29:12.850Z,47.05
2023-02-15T07:31:39.213Z,45.05
2023-02-15T07:34:07.828Z,49.08
2023-02-15T07:36:34.143Z,59.92
2023-02-15T07:39:00.462Z,53.85
2023-02-15T07:41:26.790Z,48.17
2023-02-15T07:43:53.140Z,53.25
2023-02-15T07:46:20.936Z,46.40
2023-02-15T07:48:47.601Z,44.42
2023-02-15T07:51:15.288Z,49.97
2023-02-15T07:53:42.224Z,57.70
2023-02-15T07:56:13.304Z,49.10
2023-02-15T07:58:51.631Z,56.53
2023-02-15T08:01:36.159Z,47.53
2023-02-15T08:04:03.705Z,41.95
2023-02-15T08:06:32.291Z,55.47
2023-02-15T08:08:58.873Z,65.30
2023-02-15T08:11:30.087Z,46.58
2023-02-15T08:14:00.392Z,103.72
2023-02-15T08:16:37.804Z,100.33
2023-02-15T08:19:23.791Z,112.05
2023-02-15T08:21:53.008Z,105.40
2023-02-15T08:24:22.418Z,80.85
2023-02-15T08:26:49.609Z,87.13
2023-02-15T08:29:17.887Z,76.05
2023-02-15T08:31:44.849Z,83.75
2023-02-15T08:34:15.747Z,78.63
2023-02-15T08:36:43.317Z,203.05
2023-02-15T08:39:09.799Z,73.43
2023-02-15T08:41:37.632Z,52.38
2023-02-15T08:44:08.883Z,51.90
2023-02-15T08:46:37.864Z,49.70
2023-02-15T08:49:04.816Z,184.07
2023-02-15T08:51:33.714Z,95.10
2023-02-15T08:54:02.160Z,51.50
2023-02-15T08:56:32.813Z,112.97
2023-02-15T08:58:59.293Z,169.18
2023-02-15T09:01:31.454Z,116.47
2023-02-15T09:04:05.051Z,102.97
2023-02-15T09:06:32.610Z,118.10
2023-02-15T09:08:59.012Z,113.00
2023-02-15T09:11:28.274Z,139.52
2023-02-15T09:14:10.052Z,62.75
2023-02-15T09:16:38.180Z,51.47
2023-02-15T09:19:05.825Z,48.17
2023-02-15T09:21:33.805Z,56.45
2023-02-15T09:24:02.715Z,53.28
2023-02-15T09:26:31.220Z,90.32
2023-02-15T09:29:00.802Z,50.50
2023-02-15T09:31:31.201Z,47.25
2023-02-15T09:33:59.789Z,43.17
2023-02-15T09:36:32.179Z,51.35
2023-02-15T09:39:04.557Z,56.95
2023-02-15T09:42:25.006Z,42.13
2023-02-15T09:45:29.829Z,77.20
2023-02-15T09:48:18.151Z,65.07
2023-02-15T09:51:20.365Z,74.93
2023-02-15T09:54:04.030Z,70.55
2023-02-15T09:56:46.219Z,126.95
2023-02-15T09:59:38.481Z,69.50
2023-02-15T10:02:39.929Z,37.10
2023-02-15T10:08:03.370Z,67.80
2023-02-15T10:10:46.409Z,56.67
2023-02-15T10:13:34.670Z,32.47
2023-02-15T10:16:18.301Z,30.30
2023-02-15T10:18:54.198Z,31.80
2023-02-15T10:21:42.417Z,45.60
2023-02-15T10:24:41.362Z,29.73
2023-02-15T10:27:14.374Z,34.88
2023-02-15T10:29:56.702Z,30.63
2023-02-15T10:32:25.704Z,31.38
2023-02-15T10:35:14.134Z,29.33
2023-02-15T10:38:07.860Z,31.65
2023-02-15T10:40:39.329Z,29.90
2023-02-15T10:43:38.544Z,34.25
2023-02-15T10:46:36.637Z,33.55
2023-02-15T10:49:33.112Z,33.38
2023-02-15T10:52:37.303Z,34.03
2023-02-15T10:55:31.698Z,34.25
2023-02-15T10:58:15.617Z,29.15
2023-02-15T11:00:53.341Z,26.80
2023-02-15T11:03:34.040Z,28.83
2023-02-15T11:06:11.540Z,30.80
2023-02-15T11:08:43.722Z,32.15
2023-02-15T11:11:16.310Z,31.05
2023-02-15T11:13:50.871Z,33.30
2023-02-15T11:16:25.314Z,30.95
2023-02-15T11:18:58.094Z,32.58
2023-02-15T11:21:37.754Z,32.58
2023-02-15T11:24:12.786Z,29.27
2023-02-15T11:26:45.208Z,32.92
2023-02-15T11:29:19.444Z,30.55
2023-02-15T11:31:50.408Z,32.05
2023-02-15T11:34:26.148Z,31.85
2023-02-15T11:36:56.923Z,28.30
2023-02-15T11:39:29.378Z,26.70
2023-02-15T11:42:06.327Z,31.85
2023-02-15T11:44:42.643Z,28.75
2023-02-15T11:47:12.689Z,104.78
2023-02-15T11:49:39.308Z,37.15
2023-02-15T11:52:13.978Z,38.55
2023-02-15T11:54:43.549Z,31.75
2023-02-15T11:57:22.840Z,28.88
2023-02-15T11:59:59.318Z,31.65
2023-02-15T12:02:28.350Z,26.70
2023-02-15T12:04:59.418Z,27.38
2023-02-15T12:07:37.671Z,30.40
2023-02-15T12:10:22.502Z,25.90
2023-02-15T12:12:48.880Z,28.70
2023-02-15T12:15:15.571Z,37.10
2023-02-15T12:17:52.807Z,30.38
2023-02-15T12:20:19.083Z,103.20
2023-02-15T12:23:03.140Z,28.63
2023-02-15T12:25:55.643Z,28.20
2023-02-15T12:28:28.179Z,26.25
2023-02-15T12:30:57.158Z,29.02
2023-02-15T12:33:35.799Z,25.35
2023-02-15T12:36:10.607Z,26.05
2023-02-15T12:38:37.050Z,24.25
2023-02-15T12:41:27.122Z,25.17
2023-02-15T12:44:07.146Z,26.33
2023-02-15T12:46:37.967Z,26.98
2023-02-15T12:49:10.522Z,25.23
2023-02-15T12:51:45.362Z,27.92
2023-02-15T12:54:25.394Z,26.73
2023-02-15T12:56:52.586Z,26.23
2023-02-15T12:59:23.527Z,28.63
2023-02-15T13:01:52.047Z,25.13
2023-02-15T13:04:30.172Z,28.77
2023-02-15T13:07:00.750Z,22.98
2023-02-15T13:09:32.914Z,28.42
2023-02-15T13:12:18.778Z,27.55
2023-02-15T13:14:52.441Z,29.95
2023-02-15T13:17:25.568Z,24.90
2023-02-15T13:19:55.191Z,26.73
2023-02-15T13:22:33.878Z,25.50
2023-02-15T13:25:05.805Z,28.58
2023-02-15T13:27:38.562Z,27.58
2023-02-15T13:30:21.392Z,31.63
2023-02-15T13:32:52.341Z,27.50
2023-02-15T13:35:19.910Z,29.15
2023-02-15T13:37:55.233Z,24.55
2023-02-15T13:40:54.225Z,29.48
2023-02-15T13:43:33.298Z,43.10
2023-02-15T13:46:38.242Z,66.05
2023-02-15T13:49:30.851Z,32.55
2023-02-15T13:52:15.381Z,33.28
2023-02-15T13:54:56.883Z,30.75
2023-02-15T13:57:42.287Z,34.15
2023-02-15T14:00:46.657Z,34.50
2023-02-15T14:03:16.671Z,35.20
2023-02-15T14:05:55.317Z,37.95
2023-02-15T14:08:48.683Z,36.35
2023-02-15T14:11:28.969Z,36.38
2023-02-15T14:14:33.262Z,39.33
2023-02-15T14:17:07.849Z,36.70
2023-02-15T14:19:55.091Z,40.42
2023-02-15T14:22:41.692Z,42.60
2023-02-15T14:25:27.030Z,34.88
2023-02-15T14:28:02.543Z,43.50
2023-02-15T14:30:37.281Z,40.55
2023-02-15T14:33:25.501Z,43.38
2023-02-15T14:35:52.296Z,42.97
2023-02-15T14:38:44.537Z,44.00
2023-02-15T14:41:24.455Z,45.25
2023-02-15T14:43:50.849Z,39.58
2023-02-15T14:46:32.141Z,42.47
2023-02-15T14:51:43.920Z,47.55
2023-02-15T14:54:33.588Z,78.45
2023-02-15T14:57:02.953Z,90.82
2023-02-15T14:59:44.353Z,64.88
2023-02-15T15:04:45.991Z,42.28
2023-02-15T15:07:22.501Z,42.35
2023-02-15T15:10:27.181Z,39.85
2023-02-15T15:12:58.218Z,61.08
2023-02-15T15:15:27.605Z,53.70
2023-02-15T15:18:02.128Z,46.67
2023-02-15T15:20:41.929Z,67.10
2023-02-15T15:23:17.480Z,41.97
2023-02-15T15:26:21.902Z,41.50
2023-02-15T15:28:48.204Z,41.60
2023-02-15T15:31:38.780Z,48.30
2023-02-15T15:34:20.096Z,34.15
2023-02-15T15:37:11.654Z,34.13
2023-02-15T15:40:21.851Z,49.75
2023-02-15T15:43:09.164Z,43.15
2023-02-15T15:45:44.778Z,37.88
2023-02-15T15:48:34.432Z,44.80
2023-02-15T15:51:05.483Z,37.65
2023-02-15T15:53:40.857Z,58.92
2023-02-15T15:56:13.109Z,46.85
2023-02-15T15:58:45.290Z,45.95
2023-02-15T16:01:15.572Z,35.80
2023-02-15T16:03:52.677Z,37.37
2023-02-15T16:06:33.895Z,45.95
2023-02-15T16:09:21.553Z,34.50
2023-02-15T16:12:01.184Z,39.85
2023-02-15T16:14:35.773Z,38.65
2023-02-15T16:17:05.382Z,34.45
2023-02-15T16:19:39.007Z,37.50
2023-02-15T16:22:13.349Z,37.58
2023-02-15T16:24:57.792Z,46.65
2023-02-15T16:27:44.686Z,52.72
2023-02-15T16:30:22.097Z,40.97
2023-02-15T16:32:49.143Z,38.72
2023-02-15T16:35:18.549Z,38.95
2023-02-15T16:37:45.378Z,35.28
2023-02-15T16:40:43.166Z,30.73
2023-02-15T16:43:17.363Z,54.47
2023-02-15T16:45:44.460Z,133.48
2023-02-15T16:48:24.214Z,125.97
2023-02-15T16:50:54.473Z,60.28
2023-02-15T16:53:24.977Z,58.23
2023-02-15T16:55:57.950Z,39.58
2023-02-15T16:58:29.900Z,46.92
2023-02-15T17:01:02.092Z,37.78
2023-02-15T17:03:29.655Z,38.53
2023-02-15T17:05:58.513Z,37.33
2023-02-15T17:08:33.048Z,35.65
2023-02-15T17:10:59.317Z,48.30
2023-02-15T17:13:29.525Z,58.80
2023-02-15T17:15:58.882Z,49.45
2023-02-15T17:18:27.820Z,45.10
2023-02-15T17:20:56.972Z,44.88
2023-02-15T17:23:26.455Z,42.20
2023-02-15T17:25:53.131Z,43.90
2023-02-15T17:28:23.010Z,49.30
2023-02-15T17:30:51.898Z,65.45
2023-02-15T17:33:36.002Z,50.65
2023-02-15T17:36:22.737Z,54.38
2023-02-15T17:38:58.248Z,63.97
2023-02-15T17:41:25.256Z,53.20
2023-02-15T17:43:51.617Z,45.75
2023-02-15T17:46:19.557Z,40.10
2023-02-15T17:48:48.600Z,39.53
2023-02-15T17:51:16.293Z,38.50
2023-02-15T17:54:06.629Z,36.22
2023-02-15T17:56:34.515Z,35.05
2023-02-15T17:59:00.856Z,35.97
2023-02-15T18:01:45.718Z,39.90
2023-02-15T18:04:32.490Z,37.45
2023-02-15T18:07:18.157Z,39.25
2023-02-15T18:10:04.155Z,38.40
2023-02-15T18:12:33.333Z,40.60
2023-02-15T18:15:01.287Z,41.50
2023-02-15T18:17:35.951Z,44.50
2023-02-15T18:20:05.375Z,44.70
2023-02-15T18:22:32.714Z,38.42
2023-02-15T18:24:59.435Z,37.15
2023-02-15T18:27:26.047Z,42.38
2023-02-15T18:29:52.400Z,38.00
2023-02-15T18:32:25.364Z,36.40
2023-02-15T18:34:54.192Z,36.58
2023-02-15T18:37:22.117Z,41.70
2023-02-15T18:39:50.620Z,38.90
2023-02-15T18:42:22.877Z,46.95
2023-02-15T18:44:52.015Z,49.25
2023-02-15T18:47:18.330Z,49.05
2023-02-15T18:49:44.678Z,39.92
2023-02-15T18:52:20.407Z,41.25
2023-02-15T18:54:47.133Z,37.88
2023-02-15T18:57:15.666Z,38.38
2023-02-15T18:59:42.636Z,36.60
2023-02-15T19:02:17.538Z,43.03
2023-02-15T19:04:46.389Z,36.60
2023-02-15T19:07:29.719Z,38.67
2023-02-15T19:10:00.268Z,35.85
2023-02-15T19:12:28.383Z,44.45
2023-02-15T19:14:56.551Z,35.08
2023-02-15T19:17:23.976Z,37.00
2023-02-15T19:19:52.008Z,37.13
2023-02-15T19:22:26.038Z,39.25
2023-02-15T19:24:54.444Z,38.78
2023-02-15T19:27:37.022Z,37.65
2023-02-15T19:30:13.346Z,37.67
2023-02-15T19:32:39.658Z,38.42
2023-02-15T19:35:06.375Z,40.92
2023-02-15T19:37:37.516Z,36.92
2023-02-15T19:42:32.431Z,42.38
2023-02-15T19:44:58.740Z,40.83
2023-02-15T19:47:27.793Z,43.10
2023-02-15T19:50:00.151Z,39.95
2023-02-15T19:52:26.553Z,44.40
2023-02-15T19:54:54.609Z,47.15
2023-02-15T19:57:21.180Z,44.47
2023-02-15T19:59:47.467Z,50.03
2023-02-15T20:02:15.515Z,43.63
2023-02-15T20:04:41.911Z,47.50
2023-02-15T20:07:27.470Z,55.35
2023-02-15T20:09:53.909Z,62.88
2023-02-15T20:12:25.442Z,45.72
2023-02-15T20:14:52.895Z,45.78
2023-02-15T20:17:19.506Z,47.38
2023-02-15T20:19:46.049Z,38.78
2023-02-15T20:22:27.246Z,42.85
2023-02-15T20:24:56.104Z,48.40
2023-02-15T20:27:23.149Z,43.33
2023-02-15T20:29:50.363Z,39.40
2023-02-15T20:32:16.838Z,40.13
2023-02-15T20:34:43.265Z,45.08
2023-02-15T20:37:28.690Z,44.08
2023-02-15T20:39:55.241Z,42.58
2023-02-15T20:42:21.608Z,40.70
2023-02-15T20:44:47.935Z,77.55
2023-02-15T20:47:14.322Z,57.30
2023-02-15T20:49:40.664Z,45.60
2023-02-15T20:52:19.769Z,47.88
2023-02-15T20:54:46.141Z,68.28
2023-02-15T20:57:12.841Z,60.25
2023-02-15T20:59:40.555Z,73.15
2023-02-15T21:02:23.647Z,59.00
2023-02-15T21:04:49.991Z,67.60
2023-02-15T21:07:19.975Z,44.97
2023-02-15T21:09:46.470Z,47.17
2023-02-15T21:12:18.380Z,51.83
2023-02-15T21:14:45.530Z,45.53
2023-02-15T21:17:13.346Z,48.42
2023-02-15T21:19:41.202Z,46.55
2023-02-15T21:22:12.270Z,152.55
2023-02-15T21:24:38.620Z,115.60
2023-02-15T21:27:06.779Z,83.45
2023-02-15T21:29:33.216Z,52.75
2023-02-15T21:32:00.350Z,46.05
2023-02-15T21:34:26.818Z,50.40
2023-02-15T21:36:53.468Z,50.88
2023-02-15T21:39:23.194Z,50.60
2023-02-15T21:42:10.137Z,57.42
2023-02-15T21:44:54.957Z,55.67
2023-02-15T21:47:44.830Z,58.10
2023-02-15T21:50:43.599Z,56.20
2023-02-15T21:53:13.368Z,56.10
2023-02-15T21:55:39.726Z,58.45
2023-02-15T21:58:06.182Z,60.33
2023-02-15T22:00:33.685Z,59.75
2023-02-15T22:03:01.664Z,62.47
2023-02-15T22:05:34.304Z,70.70
2023-02-15T22:08:00.884Z,71.07
2023-02-15T22:10:30.906Z,78.80
2023-02-15T22:13:00.109Z,89.93
2023-02-15T22:15:31.997Z,69.82
2023-02-15T22:17:58.317Z,67.95
2023-02-15T22:20:25.168Z,66.25
2023-02-15T22:22:52.444Z,65.75
2023-02-15T22:25:22.955Z,69.97
2023-02-15T22:27:51.171Z,45.85
2023-02-15T22:30:28.141Z,62.55
2023-02-15T22:32:56.527Z,61.63
2023-02-15T22:35:32.162Z,75.97
2023-02-15T22:37:59.171Z,59.65
2023-02-15T22:40:33.651Z,55.03
2023-02-15T22:43:02.464Z,58.05
2023-02-15T22:45:28.910Z,60.30
2023-02-15T22:47:57.657Z,73.82
2023-02-15T22:50:30.237Z,64.15
2023-02-15T22:52:56.882Z,60.92
2023-02-15T22:55:24.966Z,68.22
2023-02-15T22:57:54.340Z,62.35
2023-02-15T23:00:24.227Z,63.30
2023-02-15T23:02:50.670Z,85.93
2023-02-15T23:05:18.645Z,74.85
2023-02-15T23:07:45.855Z,76.15
2023-02-15T23:10:21.021Z,62.53
2023-02-15T23:13:08.146Z,60.58
2023-02-15T23:15:35.761Z,61.40
2023-02-15T23:18:52.044Z,63.50
2023-02-15T23:21:32.863Z,53.70
2023-02-15T23:24:15.360Z,78.80
2023-02-15T23:26:41.656Z,64.50
2023-02-15T23:29:13.946Z,77.85
2023-02-15T23:31:43.488Z,70.43
2023-02-15T23:34:29.444Z,66.13
2023-02-15T23:36:56.636Z,64.72
2023-02-15T23:39:46.416Z,72.63
2023-02-15T23:42:28.023Z,75.82
2023-02-15T23:44:54.368Z,67.65
2023-02-15T23:47:44.083Z,76.50
2023-02-15T23:50:28.380Z,65.38
2023-02-15T23:52:55.992Z,63.97
2023-02-15T23:55:24.908Z,71.22
2023-02-15T23:57:51.230Z,91.93
